createdAt,value
2022-12-03T00:00:18.506Z,-4.40
2022-12-03T00:02:47.223Z,-4.40
2022-12-03T00:05:15.837Z,-4.40
2022-12-03T00:07:44.427Z,-4.40
2022-12-03T00:10:14.538Z,-4.40
2022-12-03T00:12:43.104Z,-4.40
2022-12-03T00:15:12.778Z,-4.50
2022-12-03T00:17:41.480Z,-4.50
2022-12-03T00:20:12.881Z,-4.50
2022-12-03T00:22:41.473Z,-4.40
2022-12-03T00:25:10.779Z,-4.40
2022-12-03T00:27:40.737Z,-4.40
2022-12-03T00:30:10.863Z,-4.40
2022-12-03T00:32:39.463Z,-4.40
2022-12-03T00:35:08.648Z,-4.40
2022-12-03T00:37:37.211Z,-4.50
2022-12-03T00:40:06.926Z,-4.40
2022-12-03T00:42:35.979Z,-4.50
2022-12-03T00:45:07.006Z,-4.50
2022-12-03T00:47:35.682Z,-4.50
2022-12-03T00:50:04.579Z,-4.40
2022-12-03T00:52:33.251Z,-4.40
2022-12-03T00:55:01.775Z,-4.30
2022-12-03T00:57:30.352Z,-4.30
2022-12-03T00:59:58.849Z,-4.30
2022-12-03T01:02:28.818Z,-4.30
2022-12-03T01:04:57.560Z,-4.30
2022-12-03T01:07:26.906Z,-4.30
2022-12-03T01:09:55.567Z,-4.20
2022-12-03T01:12:27.656Z,-4.20
2022-12-03T01:14:56.333Z,-4.20
2022-12-03T01:17:25.473Z,-4.20
2022-12-03T01:19:55.703Z,-4.10
2022-12-03T01:22:24.252Z,-4.20
2022-12-03T01:24:53.013Z,-4.10
2022-12-03T01:27:21.774Z,-4.10
2022-12-03T01:29:50.394Z,-4.10
2022-12-03T01:32:18.295Z,-4.10
2022-12-03T01:34:48.087Z,-4.10
2022-12-03T01:37:19.105Z,-4.10
2022-12-03T01:39:47.659Z,-3.80
2022-12-03T01:42:19.437Z,-4.00
2022-12-03T01:44:48.359Z,-3.80
2022-12-03T01:47:19.036Z,-3.90
2022-12-03T01:49:52.137Z,-3.90
2022-12-03T01:52:25.781Z,-3.90
2022-12-03T01:54:56.857Z,-3.90
2022-12-03T01:57:28.343Z,-3.80
2022-12-03T02:00:01.174Z,-3.90
2022-12-03T02:02:34.254Z,-3.80
2022-12-03T02:05:08.682Z,-3.90
2022-12-03T02:07:38.768Z,-4.00
2022-12-03T02:10:08.564Z,-3.90
2022-12-03T02:12:39.856Z,-3.10
2022-12-03T02:15:10.017Z,-3.90
2022-12-03T02:17:39.359Z,-4.00
2022-12-03T02:20:10.223Z,-3.90
2022-12-03T02:22:47.731Z,-3.80
2022-12-03T02:25:24.492Z,-2.90
2022-12-03T02:27:55.650Z,-4.00
2022-12-03T02:30:27.011Z,-3.30
2022-12-03T02:32:57.094Z,-4.00
2022-12-03T02:35:27.288Z,-3.80
2022-12-03T02:38:14.238Z,-4.50
2022-12-03T02:41:03.985Z,-3.90
2022-12-03T02:43:33.474Z,-4.10
2022-12-03T02:46:03.767Z,-4.10
2022-12-03T02:48:35.845Z,-4.10
2022-12-03T02:51:09.276Z,-4.10
2022-12-03T02:53:42.677Z,-4.10
2022-12-03T02:56:15.756Z,-4.10
2022-12-03T02:58:46.104Z,-4.10
2022-12-03T03:01:15.552Z,-4.10
2022-12-03T03:03:45.579Z,-4.10
2022-12-03T03:06:14.559Z,-4.10
2022-12-03T03:08:44.184Z,-4.10
2022-12-03T03:11:14.525Z,-4.10
2022-12-03T03:13:43.239Z,-4.00
2022-12-03T03:16:12.534Z,-4.00
2022-12-03T03:18:41.340Z,-3.90
2022-12-03T03:21:11.172Z,-3.80
2022-12-03T03:23:39.829Z,-3.90
2022-12-03T03:26:10.167Z,-3.90
2022-12-03T03:28:43.547Z,-4.10
2022-12-03T03:31:15.117Z,-3.80
2022-12-03T03:33:46.786Z,-3.90
2022-12-03T03:36:16.248Z,-3.90
2022-12-03T03:38:44.837Z,-3.90
2022-12-03T03:41:15.205Z,-4.00
2022-12-03T03:43:49.265Z,-4.00
2022-12-03T03:46:18.746Z,-4.00
2022-12-03T03:48:49.551Z,-4.00
2022-12-03T03:51:20.049Z,-3.90
2022-12-03T03:53:51.057Z,-3.90
2022-12-03T03:56:21.859Z,-3.90
2022-12-03T03:58:51.779Z,-3.90
2022-12-03T04:01:20.632Z,-4.00
2022-12-03T04:03:49.205Z,-4.00
2022-12-03T04:06:17.858Z,-3.90
2022-12-03T04:08:46.336Z,-3.90
2022-12-03T04:11:40.766Z,-3.80
2022-12-03T04:14:10.664Z,-3.90
2022-12-03T04:16:39.323Z,-3.90
2022-12-03T04:19:07.814Z,-3.80
2022-12-03T04:21:53.680Z,-3.80
2022-12-03T04:24:22.215Z,-3.80
2022-12-03T04:27:08.147Z,-3.80
2022-12-03T04:29:38.199Z,-3.90
2022-12-03T04:32:24.456Z,-3.70
2022-12-03T04:35:10.756Z,-3.70
2022-12-03T04:37:39.367Z,-3.70
2022-12-03T04:40:29.554Z,-3.70
2022-12-03T04:42:58.126Z,-3.60
2022-12-03T04:45:28.008Z,-3.60
2022-12-03T04:47:56.533Z,-3.60
2022-12-03T04:50:25.179Z,-3.70
2022-12-03T04:52:53.679Z,-3.70
2022-12-03T04:55:22.144Z,-3.70
2022-12-03T04:57:50.661Z,-3.70
2022-12-03T05:00:19.655Z,-3.70
2022-12-03T05:02:49.788Z,-3.70
2022-12-03T05:05:18.609Z,-3.70
2022-12-03T05:07:47.192Z,-3.70
2022-12-03T05:10:15.679Z,-3.70
2022-12-03T05:12:44.204Z,-3.70
2022-12-03T05:15:12.943Z,-3.70
2022-12-03T05:17:41.413Z,-3.70
2022-12-03T05:20:30.687Z,-3.70
2022-12-03T05:22:59.195Z,-3.60
2022-12-03T05:25:27.708Z,-3.60
2022-12-03T05:27:56.317Z,-3.50
2022-12-03T05:30:25.005Z,-3.50
2022-12-03T05:32:53.645Z,-3.50
2022-12-03T05:35:23.548Z,-3.60
2022-12-03T05:37:53.636Z,-3.60
2022-12-03T05:40:22.292Z,-3.60
2022-12-03T05:42:56.896Z,-3.60
2022-12-03T05:45:27.358Z,-3.60
2022-12-03T05:47:56.835Z,-3.70
2022-12-03T05:50:28.565Z,-3.60
2022-12-03T05:52:57.087Z,-3.70
2022-12-03T05:55:26.418Z,-3.70
2022-12-03T05:57:55.127Z,-3.70
2022-12-03T06:00:26.105Z,-3.70
2022-12-03T06:02:55.290Z,-3.70
2022-12-03T06:05:24.794Z,-3.70
2022-12-03T06:07:54.815Z,-3.70
2022-12-03T06:10:25.611Z,-3.70
2022-12-03T06:12:54.595Z,-3.70
2022-12-03T06:15:23.129Z,-3.70
2022-12-03T06:17:51.707Z,-3.70
2022-12-03T06:20:22.084Z,-3.70
2022-12-03T06:22:50.662Z,-3.70
2022-12-03T06:25:20.568Z,-3.60
2022-12-03T06:27:49.093Z,-3.60
2022-12-03T06:30:17.849Z,-3.70
2022-12-03T06:32:46.601Z,-3.60
2022-12-03T06:35:15.101Z,-3.60
2022-12-03T06:37:43.644Z,-3.60
2022-12-03T06:40:13.477Z,-3.60
2022-12-03T06:42:43.143Z,-3.60
2022-12-03T06:45:12.714Z,-3.70
2022-12-03T06:47:41.241Z,-3.70
2022-12-03T06:50:10.725Z,-3.60
2022-12-03T06:52:39.251Z,-3.70
2022-12-03T06:55:08.775Z,-3.70
2022-12-03T06:57:37.323Z,-3.70
2022-12-03T07:00:10.064Z,-3.80
2022-12-03T07:02:38.814Z,-3.70
2022-12-03T07:05:07.664Z,-3.70
2022-12-03T07:07:36.273Z,-3.70
2022-12-03T07:10:05.340Z,-3.70
2022-12-03T07:12:34.004Z,-3.80
2022-12-03T07:15:02.586Z,-3.80
2022-12-03T07:17:32.476Z,-3.80
2022-12-03T07:20:01.011Z,-3.80
2022-12-03T07:22:29.491Z,-3.80
2022-12-03T07:24:58.062Z,-3.80
2022-12-03T07:27:26.568Z,-3.80
2022-12-03T07:29:55.073Z,-3.80
2022-12-03T07:32:23.586Z,-3.80
2022-12-03T07:34:53.667Z,-3.80
2022-12-03T07:37:23.441Z,-3.80
2022-12-03T07:39:52.707Z,-3.80
2022-12-03T07:42:21.247Z,-3.90
2022-12-03T07:44:49.736Z,-3.90
2022-12-03T07:47:18.595Z,-3.80
2022-12-03T07:49:47.113Z,-3.90
2022-12-03T07:52:17.039Z,-3.90
2022-12-03T07:54:45.842Z,-3.90
2022-12-03T07:57:14.415Z,-3.90
2022-12-03T07:59:42.881Z,-3.90
2022-12-03T08:02:11.508Z,-3.90
2022-12-03T08:04:40.051Z,-3.90
2022-12-03T08:07:08.548Z,-3.90
2022-12-03T08:09:40.937Z,-3.90
2022-12-03T08:12:18.255Z,-3.90
2022-12-03T08:14:46.848Z,-3.90
2022-12-03T08:17:18.013Z,-3.90
2022-12-03T08:19:48.264Z,-3.90
2022-12-03T08:22:17.639Z,-3.90
2022-12-03T08:24:47.499Z,-3.90
2022-12-03T08:27:17.779Z,-3.80
2022-12-03T08:29:46.371Z,-3.80
2022-12-03T08:32:15.032Z,-3.80
2022-12-03T08:34:45.516Z,-3.80
2022-12-03T08:37:18.152Z,-3.80
2022-12-03T08:39:49.745Z,-3.80
2022-12-03T08:42:40.944Z,-3.80
2022-12-03T08:45:43.337Z,-3.80
2022-12-03T08:48:38.011Z,-3.80
2022-12-03T08:51:14.222Z,-3.70
2022-12-03T08:53:47.210Z,-3.70
2022-12-03T08:56:23.447Z,-3.60
2022-12-03T08:58:54.918Z,-3.70
2022-12-03T09:01:31.928Z,-3.70
2022-12-03T09:04:16.834Z,-3.70
2022-12-03T09:06:45.490Z,-3.70
2022-12-03T09:09:14.018Z,-3.70
2022-12-03T09:11:44.438Z,-3.70
2022-12-03T09:14:18.460Z,-3.80
2022-12-03T09:16:48.015Z,-3.80
2022-12-03T09:19:16.766Z,-3.80
2022-12-03T09:21:45.933Z,-3.80
2022-12-03T09:24:14.519Z,-3.80
2022-12-03T09:26:44.633Z,-3.80
2022-12-03T09:29:13.201Z,-3.70
2022-12-03T09:31:42.314Z,-3.70
2022-12-03T09:34:12.533Z,-3.70
2022-12-03T09:36:41.101Z,-3.70
2022-12-03T09:39:09.615Z,-3.60
2022-12-03T09:41:38.559Z,-3.60
2022-12-03T09:44:13.950Z,-3.50
2022-12-03T09:46:49.265Z,-3.40
2022-12-03T09:49:19.594Z,-3.40
2022-12-03T09:51:48.684Z,-3.40
2022-12-03T09:54:24.665Z,-3.30
2022-12-03T09:56:53.878Z,-3.30
2022-12-03T09:59:27.432Z,-3.30
2022-12-03T10:01:56.230Z,-3.30
2022-12-03T10:04:25.853Z,-3.30
2022-12-03T10:06:54.559Z,-3.30
2022-12-03T10:09:27.079Z,-3.30
2022-12-03T10:11:56.606Z,-3.30
2022-12-03T10:14:27.050Z,-3.30
2022-12-03T10:16:55.715Z,-3.40
2022-12-03T10:19:27.455Z,-3.40
2022-12-03T10:21:56.888Z,-3.40
2022-12-03T10:24:28.967Z,-3.50
2022-12-03T10:26:59.509Z,-3.40
2022-12-03T10:29:33.971Z,-3.40
2022-12-03T10:32:05.972Z,-3.50
2022-12-03T10:34:36.446Z,-3.50
2022-12-03T10:37:14.443Z,-3.50
2022-12-03T10:39:57.724Z,-3.50
2022-12-03T10:42:27.790Z,-3.50
2022-12-03T10:45:18.116Z,-3.40
2022-12-03T10:48:05.133Z,-3.50
2022-12-03T10:50:35.576Z,-3.40
2022-12-03T10:53:04.226Z,-3.40
2022-12-03T10:55:40.290Z,-3.50
2022-12-03T10:58:17.125Z,-3.50
2022-12-03T11:00:47.376Z,-3.50
2022-12-03T11:03:21.481Z,-3.50
2022-12-03T11:05:51.209Z,-3.50
2022-12-03T11:08:22.022Z,-3.50
2022-12-03T11:10:59.315Z,-3.50
2022-12-03T11:13:52.432Z,-3.60
2022-12-03T11:17:05.682Z,-3.60
2022-12-03T11:19:50.147Z,-3.60
2022-12-03T11:22:43.598Z,-3.60
2022-12-03T11:25:50.433Z,-3.70
2022-12-03T11:28:35.795Z,-3.70
2022-12-03T11:31:09.871Z,-3.60
2022-12-03T11:33:40.287Z,-3.70
2022-12-03T11:36:31.610Z,-3.70
2022-12-03T11:39:10.156Z,-3.60
2022-12-03T11:41:39.497Z,-3.70
2022-12-03T11:44:30.379Z,-3.70
2022-12-03T11:47:02.147Z,-3.70
2022-12-03T11:49:39.491Z,-3.70
2022-12-03T11:52:30.438Z,-3.70
2022-12-03T11:55:05.758Z,-3.80
2022-12-03T11:57:37.680Z,-3.80
2022-12-03T12:00:17.118Z,-3.80
2022-12-03T12:02:45.945Z,-3.90
2022-12-03T12:05:20.920Z,-3.90
2022-12-03T12:21:43.050Z,-3.90
2022-12-03T12:24:33.148Z,-3.90
2022-12-03T12:27:04.352Z,-3.80
2022-12-03T12:29:33.199Z,-3.80
2022-12-03T12:32:11.850Z,-4.00
2022-12-03T12:57:35.245Z,-4.30
2022-12-03T13:00:06.059Z,-4.20
2022-12-03T13:02:44.640Z,-4.20
2022-12-03T13:05:15.265Z,-4.20
2022-12-03T13:07:45.169Z,-4.20
2022-12-03T13:10:39.663Z,-4.30
2022-12-03T13:13:23.362Z,-4.30
2022-12-03T13:16:04.546Z,-4.20
2022-12-03T13:18:46.360Z,-4.20
2022-12-03T13:21:26.507Z,-4.10
2022-12-03T13:23:56.922Z,-4.20
2022-12-03T13:29:20.269Z,-4.30
2022-12-03T13:31:53.703Z,-4.30
2022-12-03T13:34:23.826Z,-4.30
2022-12-03T13:36:58.015Z,-4.20
2022-12-03T13:39:33.042Z,-4.20
2022-12-03T13:42:33.346Z,-4.10
2022-12-03T13:45:04.068Z,-4.10
2022-12-03T13:47:33.885Z,-4.00
2022-12-03T13:50:03.817Z,-4.10
2022-12-03T13:52:33.002Z,-4.20
2022-12-03T13:55:05.351Z,-4.20
2022-12-03T13:57:33.992Z,-4.20
2022-12-03T14:00:04.075Z,-4.20
2022-12-03T14:02:41.008Z,-4.10
2022-12-03T14:05:10.046Z,-4.20
2022-12-03T14:07:38.724Z,-4.20
2022-12-03T14:10:09.331Z,-4.20
2022-12-03T14:12:38.145Z,-4.30
2022-12-03T14:15:10.878Z,-4.30
2022-12-03T14:17:39.406Z,-4.40
2022-12-03T14:20:09.262Z,-4.40
2022-12-03T14:22:38.225Z,-4.40
2022-12-03T14:25:07.850Z,-4.40
2022-12-03T14:27:36.441Z,-4.30
2022-12-03T14:30:05.444Z,-4.40
2022-12-03T14:32:35.344Z,-4.40
2022-12-03T14:35:09.491Z,-4.50
2022-12-03T14:37:38.461Z,-4.50
2022-12-03T14:40:09.193Z,-4.50
2022-12-03T14:42:38.152Z,-4.40
2022-12-03T14:45:07.426Z,-4.40
2022-12-03T14:47:37.402Z,-4.30
2022-12-03T14:50:07.125Z,-4.40
2022-12-03T14:52:35.817Z,-4.40
2022-12-03T14:55:04.377Z,-4.40
2022-12-03T14:57:32.903Z,-4.50
2022-12-03T15:00:01.442Z,-4.50
2022-12-03T15:02:30.488Z,-4.50
2022-12-03T15:05:00.599Z,-4.50
2022-12-03T15:07:31.987Z,-4.50
2022-12-03T15:10:00.605Z,-4.60
2022-12-03T15:12:29.195Z,-4.50
2022-12-03T17:46:25.610Z,-4.50
2022-12-03T18:11:25.723Z,-4.50
2022-12-03T18:13:54.321Z,-4.50
2022-12-03T18:16:23.102Z,-4.40
2022-12-03T18:18:56.363Z,-4.40
2022-12-03T18:21:27.348Z,-4.50
2022-12-03T18:26:26.450Z,-4.50
2022-12-03T18:28:55.096Z,-4.50
2022-12-03T18:31:24.297Z,-4.50
2022-12-03T18:33:53.712Z,-4.50
2022-12-03T18:36:24.158Z,-4.50
2022-12-03T18:38:55.525Z,-4.50
2022-12-03T18:43:55.779Z,-4.50
2022-12-03T18:46:51.734Z,-4.50
2022-12-03T18:49:12.918Z,-4.50
2022-12-03T18:51:41.699Z,-4.50
2022-12-03T18:54:14.052Z,-4.50
2022-12-03T18:56:42.811Z,-4.50
2022-12-03T19:46:57.013Z,-4.50
2022-12-03T19:51:55.999Z,-4.50
2022-12-03T19:56:54.149Z,-4.50
2022-12-03T19:59:22.663Z,-4.50
2022-12-03T20:01:52.896Z,-4.50
2022-12-03T20:04:21.632Z,-4.40
2022-12-03T20:06:50.159Z,-4.40
2022-12-03T20:09:18.795Z,-4.40
2022-12-03T20:11:47.660Z,-4.30
2022-12-03T20:14:17.727Z,-4.30
2022-12-03T20:16:46.862Z,-4.40
2022-12-03T20:19:18.576Z,-4.40
2022-12-03T20:21:47.254Z,-4.30
2022-12-03T20:24:18.035Z,-4.30
2022-12-03T20:26:46.616Z,-4.30
2022-12-03T20:29:15.364Z,-4.30
2022-12-03T20:31:43.962Z,-4.20
2022-12-03T20:34:12.728Z,-4.20
2022-12-03T20:36:44.318Z,-4.20
2022-12-03T20:39:13.163Z,-4.10
2022-12-03T20:41:42.643Z,-4.10
2022-12-03T20:44:11.851Z,-4.20
2022-12-03T20:46:40.717Z,-4.10
2022-12-03T20:49:09.708Z,-4.10
2022-12-03T20:51:38.356Z,-4.10
2022-12-03T20:54:08.347Z,-4.10
2022-12-03T20:56:39.433Z,-4.10
2022-12-03T20:59:14.023Z,-4.10
2022-12-03T21:01:44.092Z,-4.10
2022-12-03T21:04:16.230Z,-4.10
2022-12-03T21:06:45.364Z,-4.00
2022-12-03T21:09:15.684Z,-4.00
2022-12-03T21:11:45.065Z,-4.00
2022-12-03T21:14:13.958Z,-4.00
2022-12-03T21:17:16.416Z,-4.00
2022-12-03T21:19:36.272Z,-3.90
2022-12-03T21:22:05.582Z,-3.90
2022-12-03T21:24:36.456Z,-3.90
2022-12-03T21:27:06.612Z,-3.90
2022-12-03T21:29:35.733Z,-3.90
2022-12-03T21:32:04.837Z,-3.80
2022-12-03T21:34:36.467Z,-3.80
2022-12-03T21:37:06.015Z,-3.70
2022-12-03T21:39:36.350Z,-3.70
2022-12-03T21:42:35.094Z,-3.70
2022-12-03T21:44:54.984Z,-3.70
2022-12-03T21:47:23.664Z,-3.70
2022-12-03T21:49:52.501Z,-3.70
2022-12-03T21:52:21.243Z,-3.60
2022-12-03T21:54:53.539Z,-3.60
2022-12-03T23:12:40.101Z,-3.00
2022-12-03T23:15:10.945Z,-2.90
2022-12-03T23:17:39.541Z,-2.90
2022-12-03T23:20:09.475Z,-2.90
2022-12-03T23:22:38.061Z,-2.90
2022-12-03T23:25:07.481Z,-2.90
2022-12-03T23:27:36.050Z,-2.90
2022-12-03T23:30:08.073Z,-2.90
2022-12-03T23:32:36.667Z,-2.90
2022-12-03T23:35:06.178Z,-2.90
2022-12-03T23:37:34.899Z,-2.90
2022-12-03T23:40:03.527Z,-2.80
2022-12-03T23:42:32.095Z,-2.80
2022-12-03T23:45:00.698Z,-2.80
2022-12-03T23:47:30.958Z,-2.80
2022-12-03T23:49:59.568Z,-2.80
2022-12-03T23:52:28.074Z,-2.80
2022-12-03T23:54:56.602Z,-2.70
2022-12-03T23:57:25.131Z,-2.70
2022-12-03T23:59:53.879Z,-2.70
